< < Back
Terminal Aerodrome Forecast


Current Version              Previous Versions:   1  2  3  4  5  6  7  8  9  

Terminal Aerodrome Forecast

533
FTUS42 KTAE 232300
TAFTLH
TAF
KTLH 232320Z 2400/2424 34004KT P6SM FEW250
     FM240300 00000KT P6SM BKN250
     FM241600 03005KT P6SM SCT250=

Latest METAR

909
SAUS80 KWBC 241300 RRC
MTRTLH
METAR KTLH 241253Z 00000KT 10SM BKN200 11/08 A3006 RMK AO2 SLP177
T01110078


USA.gov is the U.S. government's official web portal to all federal, state and local government web resources and services.